sensor_id;sensor_type;location;lat;lon;timestamp;temperature;humidity
63960;DHT22;50136;51.374;0.096;2022-12-29T00:00:21;9.50;99.90
63960;DHT22;50136;51.374;0.096;2022-12-29T00:10:23;9.60;99.90
63960;DHT22;50136;51.374;0.096;2022-12-29T00:20:26;9.60;99.90
63960;DHT22;50136;51.374;0.096;2022-12-29T00:30:28;9.70;99.90
63960;DHT22;50136;51.374;0.096;2022-12-29T00:40:31;9.50;99.90
63960;DHT22;50136;51.374;0.096;2022-12-29T00:50:34;9.50;99.90
63960;DHT22;50136;51.374;0.096;2022-12-29T01:00:37;9.50;99.90
63960;DHT22;50136;51.374;0.096;2022-12-29T01:10:39;9.50;99.90
63960;DHT22;50136;51.374;0.096;2022-12-29T01:20:42;9.30;99.90
63960;DHT22;50136;51.374;0.096;2022-12-29T01:30:44;9.30;99.90
63960;DHT22;50136;51.374;0.096;2022-12-29T01:40:47;9.30;99.90
63960;DHT22;50136;51.374;0.096;2022-12-29T01:50:50;9.30;99.90
63960;DHT22;50136;51.374;0.096;2022-12-29T02:00:53;9.10;99.90
63960;DHT22;50136;51.374;0.096;2022-12-29T02:10:55;9.00;99.90
63960;DHT22;50136;51.374;0.096;2022-12-29T02:31:17;9.00;99.90
63960;DHT22;50136;51.374;0.096;2022-12-29T02:41:24;8.90;99.90
63960;DHT22;50136;51.374;0.096;2022-12-29T02:51:29;9.00;99.90
63960;DHT22;50136;51.374;0.096;2022-12-29T03:01:36;9.10;99.90
63960;DHT22;50136;51.374;0.096;2022-12-29T03:11:45;9.10;99.90
63960;DHT22;50136;51.374;0.096;2022-12-29T03:21:51;9.20;99.90
63960;DHT22;50136;51.374;0.096;2022-12-29T03:31:56;9.20;99.90
63960;DHT22;50136;51.374;0.096;2022-12-29T03:42:01;9.30;99.90
63960;DHT22;50136;51.374;0.096;2022-12-29T03:52:05;9.60;99.90
63960;DHT22;50136;51.374;0.096;2022-12-29T04:02:07;9.60;99.90
63960;DHT22;50136;51.374;0.096;2022-12-29T04:12:11;9.60;99.90
63960;DHT22;50136;51.374;0.096;2022-12-29T04:22:12;9.70;99.90
63960;DHT22;50136;51.374;0.096;2022-12-29T04:32:16;9.50;99.90
63960;DHT22;50136;51.374;0.096;2022-12-29T04:42:19;9.40;99.90
63960;DHT22;50136;51.374;0.096;2022-12-29T04:52:22;9.20;99.90
63960;DHT22;50136;51.374;0.096;2022-12-29T05:02:24;9.00;99.90
63960;DHT22;50136;51.374;0.096;2022-12-29T05:12:30;9.10;99.90
63960;DHT22;50136;51.374;0.096;2022-12-29T05:22:32;9.30;99.90
63960;DHT22;50136;51.374;0.096;2022-12-29T05:32:35;9.20;99.90
63960;DHT22;50136;51.374;0.096;2022-12-29T05:42:37;9.10;99.90
63960;DHT22;50136;51.374;0.096;2022-12-29T05:52:40;9.10;99.90
63960;DHT22;50136;51.374;0.096;2022-12-29T06:02:42;9.10;99.90
63960;DHT22;50136;51.374;0.096;2022-12-29T06:12:45;9.10;99.90
63960;DHT22;50136;51.374;0.096;2022-12-29T06:22:47;9.20;99.90
63960;DHT22;50136;51.374;0.096;2022-12-29T06:32:50;9.30;99.90
63960;DHT22;50136;51.374;0.096;2022-12-29T06:42:52;9.30;99.90
63960;DHT22;50136;51.374;0.096;2022-12-29T06:52:55;9.10;99.90
63960;DHT22;50136;51.374;0.096;2022-12-29T07:02:56;8.90;99.90
63960;DHT22;50136;51.374;0.096;2022-12-29T07:13:00;8.80;99.90
63960;DHT22;50136;51.374;0.096;2022-12-29T07:23:01;8.70;99.90
63960;DHT22;50136;51.374;0.096;2022-12-29T07:33:05;8.60;99.90
63960;DHT22;50136;51.374;0.096;2022-12-29T07:43:07;8.50;99.90
63960;DHT22;50136;51.374;0.096;2022-12-29T07:53:10;8.40;99.90
63960;DHT22;50136;51.374;0.096;2022-12-29T08:13:52;8.30;99.90
63960;DHT22;50136;51.374;0.096;2022-12-29T08:23:54;8.40;99.90
63960;DHT22;50136;51.374;0.096;2022-12-29T08:33:57;8.30;99.90
63960;DHT22;50136;51.374;0.096;2022-12-29T08:43:59;8.30;99.90
63960;DHT22;50136;51.374;0.096;2022-12-29T08:54:02;8.40;99.90
63960;DHT22;50136;51.374;0.096;2022-12-29T09:04:04;8.70;99.90
63960;DHT22;50136;51.374;0.096;2022-12-29T09:14:18;9.90;99.90
63960;DHT22;50136;51.374;0.096;2022-12-29T09:24:20;10.80;99.90
63960;DHT22;50136;51.374;0.096;2022-12-29T09:34:23;11.00;99.90
63960;DHT22;50136;51.374;0.096;2022-12-29T09:44:26;10.30;99.90
63960;DHT22;50136;51.374;0.096;2022-12-29T09:54:40;9.90;99.90
63960;DHT22;50136;51.374;0.096;2022-12-29T10:04:43;9.50;99.90
63960;DHT22;50136;51.374;0.096;2022-12-29T10:14:50;9.30;99.90
63960;DHT22;50136;51.374;0.096;2022-12-29T10:24:56;9.70;99.90
63960;DHT22;50136;51.374;0.096;2022-12-29T10:35:00;9.30;99.90
63960;DHT22;50136;51.374;0.096;2022-12-29T10:45:05;9.30;99.90
63960;DHT22;50136;51.374;0.096;2022-12-29T10:55:11;9.40;99.90
63960;DHT22;50136;51.374;0.096;2022-12-29T11:05:15;9.60;99.90
63960;DHT22;50136;51.374;0.096;2022-12-29T11:15:22;9.90;99.90
63960;DHT22;50136;51.374;0.096;2022-12-29T11:25:24;9.70;99.90
63960;DHT22;50136;51.374;0.096;2022-12-29T11:35:31;9.70;99.90
63960;DHT22;50136;51.374;0.096;2022-12-29T11:45:33;9.80;99.90
63960;DHT22;50136;51.374;0.096;2022-12-29T11:55:37;9.60;99.90
63960;DHT22;50136;51.374;0.096;2022-12-29T12:05:40;9.70;99.90
63960;DHT22;50136;51.374;0.096;2022-12-29T12:15:46;9.70;99.90
63960;DHT22;50136;51.374;0.096;2022-12-29T12:25:58;9.60;99.90
63960;DHT22;50136;51.374;0.096;2022-12-29T12:36:07;9.60;99.90
63960;DHT22;50136;51.374;0.096;2022-12-29T12:56:44;9.50;99.90
63960;DHT22;50136;51.374;0.096;2022-12-29T13:06:47;9.40;99.90
63960;DHT22;50136;51.374;0.096;2022-12-29T13:16:55;9.30;99.90
63960;DHT22;50136;51.374;0.096;2022-12-29T13:27:04;9.40;99.90
63960;DHT22;50136;51.374;0.096;2022-12-29T13:37:12;9.70;99.90
63960;DHT22;50136;51.374;0.096;2022-12-29T13:47:19;10.10;99.90
63960;DHT22;50136;51.374;0.096;2022-12-29T13:57:29;9.80;99.90
63960;DHT22;50136;51.374;0.096;2022-12-29T14:07:35;9.50;99.90
63960;DHT22;50136;51.374;0.096;2022-12-29T14:17:39;9.40;99.90
63960;DHT22;50136;51.374;0.096;2022-12-29T14:27:51;9.60;99.90
63960;DHT22;50136;51.374;0.096;2022-12-29T14:38:06;9.50;99.90
63960;DHT22;50136;51.374;0.096;2022-12-29T14:48:20;9.60;99.90
63960;DHT22;50136;51.374;0.096;2022-12-29T14:58:26;9.30;99.90
63960;DHT22;50136;51.374;0.096;2022-12-29T15:08:29;9.20;99.90
63960;DHT22;50136;51.374;0.096;2022-12-29T15:18:33;9.10;99.90
63960;DHT22;50136;51.374;0.096;2022-12-29T15:28:38;8.90;99.90
63960;DHT22;50136;51.374;0.096;2022-12-29T15:38:42;8.70;99.90
63960;DHT22;50136;51.374;0.096;2022-12-29T15:48:44;8.60;99.90
63960;DHT22;50136;51.374;0.096;2022-12-29T15:58:48;8.50;99.90
63960;DHT22;50136;51.374;0.096;2022-12-29T16:08:55;8.30;99.90
63960;DHT22;50136;51.374;0.096;2022-12-29T16:18:58;8.20;99.90
63960;DHT22;50136;51.374;0.096;2022-12-29T16:29:01;8.10;99.90
63960;DHT22;50136;51.374;0.096;2022-12-29T16:49:21;7.90;99.90
63960;DHT22;50136;51.374;0.096;2022-12-29T16:59:25;7.80;99.90
63960;DHT22;50136;51.374;0.096;2022-12-29T17:09:29;7.70;99.90
63960;DHT22;50136;51.374;0.096;2022-12-29T17:30:14;7.50;99.90
63960;DHT22;50136;51.374;0.096;2022-12-29T17:40:17;7.50;99.90
63960;DHT22;50136;51.374;0.096;2022-12-29T17:50:21;7.50;99.90
63960;DHT22;50136;51.374;0.096;2022-12-29T18:00:24;7.30;99.90
63960;DHT22;50136;51.374;0.096;2022-12-29T18:10:28;7.20;99.90
63960;DHT22;50136;51.374;0.096;2022-12-29T18:20:31;7.20;99.90
63960;DHT22;50136;51.374;0.096;2022-12-29T18:30:34;7.10;99.90
63960;DHT22;50136;51.374;0.096;2022-12-29T18:40:36;7.10;99.90
63960;DHT22;50136;51.374;0.096;2022-12-29T18:50:39;7.10;99.90
63960;DHT22;50136;51.374;0.096;2022-12-29T19:00:41;7.00;99.90
63960;DHT22;50136;51.374;0.096;2022-12-29T19:10:45;7.00;99.90
63960;DHT22;50136;51.374;0.096;2022-12-29T19:20:47;7.00;99.90
63960;DHT22;50136;51.374;0.096;2022-12-29T19:30:51;7.00;99.90
63960;DHT22;50136;51.374;0.096;2022-12-29T19:50:47;7.00;99.90
63960;DHT22;50136;51.374;0.096;2022-12-29T20:00:49;7.00;99.90
63960;DHT22;50136;51.374;0.096;2022-12-29T20:10:57;7.00;99.90
63960;DHT22;50136;51.374;0.096;2022-12-29T20:21:01;6.80;99.90
63960;DHT22;50136;51.374;0.096;2022-12-29T20:31:07;6.70;99.90
63960;DHT22;50136;51.374;0.096;2022-12-29T20:41:14;6.70;99.90
63960;DHT22;50136;51.374;0.096;2022-12-29T20:51:18;6.70;99.90
63960;DHT22;50136;51.374;0.096;2022-12-29T21:01:22;6.60;99.90
63960;DHT22;50136;51.374;0.096;2022-12-29T21:11:26;6.40;99.90
63960;DHT22;50136;51.374;0.096;2022-12-29T21:21:28;6.40;99.90
63960;DHT22;50136;51.374;0.096;2022-12-29T21:31:33;6.40;99.90
63960;DHT22;50136;51.374;0.096;2022-12-29T21:41:35;6.40;99.90
63960;DHT22;50136;51.374;0.096;2022-12-29T21:51:39;6.30;99.90
63960;DHT22;50136;51.374;0.096;2022-12-29T22:01:41;6.40;99.90
63960;DHT22;50136;51.374;0.096;2022-12-29T22:11:44;6.40;99.90
63960;DHT22;50136;51.374;0.096;2022-12-29T22:21:46;6.40;99.90
63960;DHT22;50136;51.374;0.096;2022-12-29T22:31:49;6.40;99.90
63960;DHT22;50136;51.374;0.096;2022-12-29T22:41:52;6.40;99.90
63960;DHT22;50136;51.374;0.096;2022-12-29T22:51:55;6.30;99.90
63960;DHT22;50136;51.374;0.096;2022-12-29T23:01:57;6.10;99.90
63960;DHT22;50136;51.374;0.096;2022-12-29T23:12:01;5.90;99.90
63960;DHT22;50136;51.374;0.096;2022-12-29T23:22:03;5.80;99.90
63960;DHT22;50136;51.374;0.096;2022-12-29T23:32:06;5.70;99.90
63960;DHT22;50136;51.374;0.096;2022-12-29T23:42:08;5.70;99.90
63960;DHT22;50136;51.374;0.096;2022-12-29T23:52:12;5.70;99.90
